Terminal Aerodrome Forecast
Issued by NWS

Home | Current Version | Previous Version | Text Only | Print | Product List | Glossary On
Versions: 1 2 3 4 5 6 7 8 9 10 11 12 13 14 15 16 17 18 19 20 21 22 23 24 25 26 27 28 29 30 31 32 33 34 35 36 37 38 39 40 41 42 43 44 45 46 47 48 49 50
000
FTUS43 KMKX 241157
TAFENW
TAF
KENW 241157Z 2412/2512 26008KT 6SM -DZ BR OVC003
     FM241600 27013G20KT 6SM -RA OVC008
     FM241700 26015G24KT 6SM -RASN OVC008
     FM241900 26019G28KT 2SM -SN OVC008
      TEMPO 2419/2423 1/2SM SN
     FM250000 26020G30KT 3SM -SN BLSN OVC015
     FM250600 27015KT 6SM -SN BLSN OVC020
     FM250700 27014KT 6SM BLSN OVC025=

USA.gov is the U.S. government's official web portal to all federal, state and local government web resources and services.